Time;durP1;ratioP1;P1;durP2;ratioP2;P2;SDS_P1;SDS_P2;PMS_P1;PMS_P2;Temp;Humidity;BMP_temperature;BMP_pressure;BME280_temperature;BME280_humidity;BME280_pressure;Samples;Min_cycle;Max_cycle;Signal;HPM_P1;HPM_P2
2023/04/12 07:11:30;;;;;;;;;;;19.20;61.40;;;;;;6273876;22;20262;-72
2023/04/12 07:13:59;;;;;;;;;;;19.20;62.10;;;;;;6223906;22;19938;-71
2023/04/12 07:16:27;;;;;;;;;;;19.20;61.90;;;;;;6275550;22;20364;-73
2023/04/12 07:18:53;;;;;;;;;;;19.20;61.70;;;;;;6218992;22;19903;-73
2023/04/12 07:21:20;;;;;;;;;;;19.10;61.80;;;;;;6271887;22;20326;-74
2023/04/12 07:23:50;;;;;;;;;;;19.10;62.00;;;;;;6272685;22;19907;-73
2023/04/12 07:26:20;;;;;;;;;;;19.10;62.30;;;;;;6246313;22;19914;-73
2023/04/12 07:28:47;;;;;;;;;;;19.00;62.70;;;;;;6245928;22;20345;-75
2023/04/12 07:31:14;;;;;;;;;;;19.10;63.00;;;;;;6272123;22;20238;-75
2023/04/12 07:33:40;;;;;;;;;;;19.00;63.20;;;;;;6272307;22;19907;-76
2023/04/12 07:36:07;;;;;;;;;;;19.00;63.30;;;;;;6245807;22;19994;-74
2023/04/12 07:38:34;;;;;;;;;;;18.90;63.30;;;;;;6272290;22;19903;-75
2023/04/12 07:41:01;;;;;;;;;;;18.90;63.50;;;;;;6272570;22;19961;-73
2023/04/12 07:43:28;;;;;;;;;;;18.90;63.80;;;;;;6271678;22;19919;-73
2023/04/12 07:45:55;;;;;;;;;;;18.80;64.00;;;;;;6272282;22;19914;-73
2023/04/12 07:48:21;;;;;;;;;;;18.80;64.50;;;;;;6272004;22;20435;-72
2023/04/12 07:50:49;;;;;;;;;;;18.80;64.60;;;;;;6245495;22;19907;-73
2023/04/12 07:53:19;;;;;;;;;;;18.80;65.30;;;;;;6272530;22;19927;-73
2023/04/12 07:55:46;;;;;;;;;;;18.70;65.30;;;;;;6245697;22;19915;-74
2023/04/12 07:58:13;;;;;;;;;;;18.80;65.60;;;;;;6272106;22;19907;-73
2023/04/12 08:00:40;;;;;;;;;;;18.70;65.60;;;;;;6244325;22;19907;-73
2023/04/12 08:03:06;;;;;;;;;;;18.70;65.90;;;;;;6272045;22;19907;-73
2023/04/12 08:05:34;;;;;;;;;;;18.60;66.60;;;;;;6271319;22;19904;-73
2023/04/12 08:08:00;;;;;;;;;;;18.60;67.10;;;;;;6269818;22;19911;-73
2023/04/12 08:10:27;;;;;;;;;;;18.60;66.70;;;;;;6271719;22;19919;-72
2023/04/12 08:12:54;;;;;;;;;;;18.60;66.80;;;;;;6272474;22;20318;-73
2023/04/12 08:15:21;;;;;;;;;;;18.50;66.90;;;;;;6271638;22;19915;-76
2023/04/12 08:17:47;;;;;;;;;;;18.50;67.30;;;;;;6271622;22;19947;-75
2023/04/12 08:20:14;;;;;;;;;;;18.50;66.90;;;;;;6245581;22;19907;-72
2023/04/12 08:22:42;;;;;;;;;;;18.50;67.40;;;;;;6274234;22;19908;-73
2023/04/12 08:25:09;;;;;;;;;;;18.40;67.60;;;;;;6247089;22;19910;-74
2023/04/12 08:27:36;;;;;;;;;;;18.40;67.50;;;;;;6247221;22;19907;-73
2023/04/12 08:30:03;;;;;;;;;;;18.40;67.80;;;;;;6270785;22;19903;-73
2023/04/12 08:32:29;;;;;;;;;;;18.40;67.70;;;;;;6273175;22;19903;-73
2023/04/12 08:34:56;;;;;;;;;;;18.40;68.00;;;;;;6273227;22;19915;-73
2023/04/12 08:37:23;;;;;;;;;;;18.40;68.30;;;;;;6272504;22;19915;-74
2023/04/12 08:39:49;;;;;;;;;;;18.40;68.20;;;;;;6246308;22;19907;-74
2023/04/12 08:42:16;;;;;;;;;;;18.30;68.50;;;;;;6273173;22;19918;-73
2023/04/12 08:44:43;;;;;;;;;;;18.30;68.60;;;;;;6246023;22;19938;-76
2023/04/12 08:47:10;;;;;;;;;;;18.20;68.40;;;;;;6220528;22;20234;-76
2023/04/12 08:49:37;;;;;;;;;;;18.20;69.10;;;;;;6246414;22;20302;-72
2023/04/12 08:52:07;;;;;;;;;;;18.20;68.60;;;;;;6272307;22;20341;-73
2023/04/12 08:54:34;;;;;;;;;;;18.20;69.10;;;;;;6271970;22;19907;-74
2023/04/12 08:59:46;;;;;;;;;;;18.20;69.10;;;;;;6251132;22;20302;-73
2023/04/12 09:02:13;;;;;;;;;;;18.20;68.90;;;;;;6272815;22;19915;-73
2023/04/12 09:04:49;;;;;;;;;;;18.20;68.60;;;;;;6246209;22;19908;-73
2023/04/12 09:07:16;;;;;;;;;;;18.20;69.30;;;;;;6242450;22;19914;-73
2023/04/12 09:09:46;;;;;;;;;;;18.20;69.40;;;;;;6273202;22;19903;-73
2023/04/12 09:12:14;;;;;;;;;;;18.20;69.40;;;;;;6273698;22;19907;-73
2023/04/12 09:14:43;;;;;;;;;;;18.20;69.00;;;;;;6273142;22;19961;-73
2023/04/12 09:17:23;;;;;;;;;;;18.20;69.20;;;;;;6272245;22;20526;-73
2023/04/12 09:19:49;;;;;;;;;;;18.10;69.90;;;;;;6273004;22;19904;-73
2023/04/12 09:22:16;;;;;;;;;;;18.10;70.10;;;;;;6272877;22;20318;-73
2023/04/12 09:24:47;;;;;;;;;;;18.10;69.80;;;;;;6273048;22;19907;-73
2023/04/12 09:27:14;;;;;;;;;;;18.00;70.00;;;;;;6273330;22;19910;-73
2023/04/12 09:29:41;;;;;;;;;;;18.00;70.00;;;;;;6272771;22;19957;-73
2023/04/12 09:32:08;;;;;;;;;;;18.00;70.40;;;;;;6271167;22;20391;-73
2023/04/12 09:34:35;;;;;;;;;;;18.00;70.10;;;;;;6272208;22;19907;-72
2023/04/12 09:37:15;;;;;;;;;;;18.00;70.10;;;;;;6272834;22;19919;-73
2023/04/12 09:39:41;;;;;;;;;;;18.00;71.00;;;;;;6273106;22;20245;-73
2023/04/12 09:42:09;;;;;;;;;;;18.00;70.90;;;;;;6272599;22;20322;-73
2023/04/12 09:44:36;;;;;;;;;;;17.90;71.60;;;;;;6273111;22;19908;-73
2023/04/12 09:47:05;;;;;;;;;;;17.80;71.90;;;;;;6273155;22;19907;-73
2023/04/12 09:49:37;;;;;;;;;;;17.80;72.30;;;;;;6272733;22;19907;-73
2023/04/12 09:52:04;;;;;;;;;;;17.80;72.30;;;;;;6272586;22;19946;-73
2023/04/12 09:54:32;;;;;;;;;;;17.80;72.40;;;;;;6272603;22;20381;-73
2023/04/12 09:56:59;;;;;;;;;;;17.70;72.50;;;;;;6244455;22;20305;-73
2023/04/12 09:59:27;;;;;;;;;;;17.70;72.60;;;;;;6246137;22;20618;-73
2023/04/12 10:01:53;;;;;;;;;;;17.70;72.40;;;;;;6244536;22;19910;-73
2023/04/12 10:04:20;;;;;;;;;;;17.70;72.60;;;;;;6244748;22;19907;-73
2023/04/12 10:06:47;;;;;;;;;;;17.70;72.30;;;;;;6269869;22;19907;-73
2023/04/12 10:09:13;;;;;;;;;;;17.70;72.40;;;;;;6246403;22;19903;-73
2023/04/12 10:11:40;;;;;;;;;;;17.70;72.40;;;;;;6244276;22;19925;-75
2023/04/12 10:14:07;;;;;;;;;;;17.70;72.60;;;;;;6245322;22;20423;-75
2023/04/12 10:16:34;;;;;;;;;;;17.70;72.90;;;;;;6272059;22;20349;-73
2023/04/12 10:19:04;;;;;;;;;;;17.70;72.80;;;;;;6272372;22;19907;-73
2023/04/12 10:21:30;;;;;;;;;;;17.80;72.90;;;;;;6271565;22;19955;-73
2023/04/12 10:23:57;;;;;;;;;;;17.80;73.60;;;;;;6271550;22;19914;-74
2023/04/12 10:26:24;;;;;;;;;;;17.80;73.10;;;;;;6268914;22;19914;-71
2023/04/12 10:29:09;;;;;;;;;;;17.80;72.90;;;;;;6270940;22;19907;-72
2023/04/12 10:31:36;;;;;;;;;;;17.80;73.10;;;;;;6272656;22;19904;-71
2023/04/12 10:34:02;;;;;;;;;;;17.80;73.30;;;;;;6245456;22;19911;-73
2023/04/12 10:36:49;;;;;;;;;;;17.80;73.10;;;;;;6219803;22;20224;-73
2023/04/12 10:39:16;;;;;;;;;;;17.80;73.20;;;;;;6270904;22;19911;-75
2023/04/12 10:42:02;;;;;;;;;;;17.80;73.10;;;;;;6270829;22;19911;-75
2023/04/12 10:44:29;;;;;;;;;;;17.80;73.40;;;;;;6245615;22;19911;-76
2023/04/12 10:46:57;;;;;;;;;;;17.70;73.50;;;;;;6271301;22;19904;-76
2023/04/12 10:49:24;;;;;;;;;;;17.70;73.70;;;;;;6245152;22;19903;-76
2023/04/12 10:52:01;;;;;;;;;;;17.70;74.00;;;;;;6244927;22;19911;-76
2023/04/12 12:04:48;;;;;;;;;;;17.50;77.50;;;;;;6272453;22;19927;-71
2023/04/12 12:07:16;;;;;;;;;;;17.50;77.40;;;;;;6243794;22;19918;-70
2023/04/12 12:09:43;;;;;;;;;;;17.50;77.10;;;;;;6220903;22;19910;-74
2023/04/12 12:12:12;;;;;;;;;;;17.40;77.30;;;;;;6272665;22;19907;-73
2023/04/12 12:15:09;;;;;;;;;;;17.40;77.20;;;;;;6272946;22;20278;-75
2023/04/12 12:17:39;;;;;;;;;;;17.40;77.00;;;;;;6273807;22;19915;-72
2023/04/12 12:20:06;;;;;;;;;;;17.40;76.90;;;;;;6249093;22;20238;-74
2023/04/12 12:22:33;;;;;;;;;;;17.40;77.10;;;;;;6277178;22;20330;-74
2023/04/12 12:25:00;;;;;;;;;;;17.40;77.30;;;;;;6277272;22;19903;-74
2023/04/12 12:27:30;;;;;;;;;;;17.40;77.30;;;;;;6277449;22;19911;-74
2023/04/12 12:30:00;;;;;;;;;;;17.40;77.60;;;;;;6276931;22;19904;-74
2023/04/12 12:32:31;;;;;;;;;;;17.40;77.80;;;;;;6250454;22;19949;-73
2023/04/12 12:34:58;;;;;;;;;;;17.30;77.90;;;;;;6250513;22;19907;-74
2023/04/12 12:37:25;;;;;;;;;;;17.30;77.70;;;;;;6276651;22;20246;-74
2023/04/12 12:40:06;;;;;;;;;;;17.30;77.60;;;;;;6277426;22;19957;-74
2023/04/12 12:42:35;;;;;;;;;;;17.30;77.60;;;;;;6276743;22;19941;-74
2023/04/12 12:45:03;;;;;;;;;;;17.30;76.90;;;;;;6276608;22;19910;-74
2023/04/12 12:47:33;;;;;;;;;;;17.30;76.80;;;;;;6275842;22;19956;-73
2023/04/12 12:50:00;;;;;;;;;;;17.30;76.50;;;;;;6275947;22;19904;-74
2023/04/12 12:52:26;;;;;;;;;;;17.30;76.10;;;;;;6249985;22;19904;-73
2023/04/12 12:54:53;;;;;;;;;;;17.30;76.10;;;;;;6276549;22;19983;-73
2023/04/12 12:57:20;;;;;;;;;;;17.20;75.80;;;;;;6276318;22;20349;-74
2023/04/12 12:59:46;;;;;;;;;;;17.20;75.50;;;;;;6276183;22;19935;-73
2023/04/12 13:02:14;;;;;;;;;;;17.20;74.90;;;;;;6277053;22;19908;-73
2023/04/12 13:04:41;;;;;;;;;;;17.30;74.80;;;;;;6275758;22;19919;-74
2023/04/12 13:07:08;;;;;;;;;;;17.30;74.70;;;;;;6275832;22;19909;-73
2023/04/12 13:09:34;;;;;;;;;;;17.30;74.50;;;;;;6276170;22;19933;-73
2023/04/12 13:12:01;;;;;;;;;;;17.20;74.50;;;;;;6276557;22;20349;-74
2023/04/12 13:14:28;;;;;;;;;;;17.30;74.60;;;;;;6276684;22;19982;-73
2023/04/12 13:16:55;;;;;;;;;;;17.30;74.40;;;;;;6276534;22;19911;-73
2023/04/12 13:19:22;;;;;;;;;;;17.20;73.80;;;;;;6274437;22;19911;-73
2023/04/12 13:21:48;;;;;;;;;;;17.20;73.80;;;;;;6275919;22;19910;-73
2023/04/12 13:24:15;;;;;;;;;;;17.20;74.00;;;;;;6275922;22;19903;-73
2023/04/12 13:26:42;;;;;;;;;;;17.20;74.00;;;;;;6275938;22;19908;-73
2023/04/12 13:29:08;;;;;;;;;;;17.20;74.40;;;;;;6276626;22;19911;-73
2023/04/12 13:31:35;;;;;;;;;;;17.20;74.40;;;;;;6275417;22;19903;-72
2023/04/12 13:34:02;;;;;;;;;;;17.20;74.30;;;;;;6276443;22;19904;-73
2023/04/12 13:36:29;;;;;;;;;;;17.20;74.50;;;;;;6275983;22;19961;-74
2023/04/12 13:38:56;;;;;;;;;;;17.20;74.50;;;;;;6276449;22;19907;-73
2023/04/12 13:41:23;;;;;;;;;;;17.20;74.60;;;;;;6277061;22;19903;-73
2023/04/12 13:43:49;;;;;;;;;;;17.20;74.50;;;;;;6275640;22;20229;-73
2023/04/12 13:46:16;;;;;;;;;;;17.20;74.40;;;;;;6275000;22;19938;-73
2023/04/12 13:48:43;;;;;;;;;;;17.20;74.30;;;;;;6248445;22;19982;-73
2023/04/12 13:51:10;;;;;;;;;;;17.20;74.50;;;;;;6275438;22;19934;-73
2023/04/12 13:53:36;;;;;;;;;;;17.20;74.60;;;;;;6276024;22;19911;-73
2023/04/12 13:56:03;;;;;;;;;;;17.20;74.60;;;;;;6275750;22;20341;-73
2023/04/12 13:58:30;;;;;;;;;;;17.20;75.10;;;;;;6275365;22;19957;-74
2023/04/12 14:00:59;;;;;;;;;;;17.20;74.90;;;;;;6275536;22;19904;-73
2023/04/12 14:03:25;;;;;;;;;;;17.20;75.40;;;;;;6275006;22;19986;-74
2023/04/12 14:05:52;;;;;;;;;;;17.20;75.20;;;;;;6276048;22;19914;-73
2023/04/12 14:08:19;;;;;;;;;;;17.20;75.20;;;;;;6275095;22;19909;-74
2023/04/12 14:10:46;;;;;;;;;;;17.20;75.50;;;;;;6274926;22;19903;-73
2023/04/12 14:13:12;;;;;;;;;;;17.20;75.70;;;;;;6275243;22;19908;-74
2023/04/12 14:15:39;;;;;;;;;;;17.20;75.20;;;;;;6275343;22;20341;-73
2023/04/12 14:18:06;;;;;;;;;;;17.20;75.10;;;;;;6274408;22;20314;-74
2023/04/12 14:20:33;;;;;;;;;;;17.20;75.20;;;;;;6275754;22;19910;-74
2023/04/12 14:23:00;;;;;;;;;;;17.20;74.70;;;;;;6276790;22;19949;-73
2023/04/12 14:25:26;;;;;;;;;;;17.20;74.60;;;;;;6276230;22;19982;-74
2023/04/12 14:27:53;;;;;;;;;;;17.20;74.50;;;;;;6276158;22;19974;-73
2023/04/12 14:30:20;;;;;;;;;;;17.20;74.40;;;;;;6249581;22;19994;-70
2023/04/12 14:32:48;;;;;;;;;;;17.20;74.50;;;;;;6215083;23;19911;-71
2023/04/12 14:35:15;;;;;;;;;;;17.20;74.60;;;;;;6214802;23;19908;-70
2023/04/12 14:37:42;;;;;;;;;;;17.20;74.60;;;;;;6213910;23;19916;-71
2023/04/12 14:40:09;;;;;;;;;;;17.20;74.70;;;;;;6214959;23;19908;-71
2023/04/12 14:42:36;;;;;;;;;;;17.20;74.70;;;;;;6215067;23;19910;-71
2023/04/12 14:45:05;;;;;;;;;;;17.20;74.90;;;;;;6213856;23;19958;-71
2023/04/12 14:47:32;;;;;;;;;;;17.20;74.90;;;;;;6214857;23;19939;-71
2023/04/12 14:49:58;;;;;;;;;;;17.20;74.90;;;;;;6214862;23;20426;-71
2023/04/12 14:52:26;;;;;;;;;;;17.20;75.10;;;;;;6214689;23;20118;-71
2023/04/12 14:54:53;;;;;;;;;;;17.20;75.20;;;;;;6211592;23;19904;-71
2023/04/12 14:57:19;;;;;;;;;;;17.20;75.20;;;;;;6214425;23;19912;-71
2023/04/12 14:59:46;;;;;;;;;;;17.10;75.20;;;;;;6214496;23;19912;-71
2023/04/12 15:02:13;;;;;;;;;;;17.10;75.50;;;;;;6214652;23;19927;-71
2023/04/12 15:04:40;;;;;;;;;;;17.10;75.90;;;;;;6214791;23;19939;-71
2023/04/12 15:07:06;;;;;;;;;;;17.10;75.90;;;;;;6214807;23;19938;-71
2023/04/12 15:09:33;;;;;;;;;;;17.10;76.20;;;;;;6213337;23;19983;-71
2023/04/12 15:12:00;;;;;;;;;;;17.10;76.00;;;;;;6214187;23;19989;-70
2023/04/12 15:14:27;;;;;;;;;;;17.10;75.90;;;;;;6214354;23;19915;-71
2023/04/12 15:16:54;;;;;;;;;;;17.10;75.80;;;;;;6214332;23;20239;-71
2023/04/12 15:19:24;;;;;;;;;;;17.10;75.80;;;;;;6213916;23;20330;-71
2023/04/12 15:21:51;;;;;;;;;;;17.10;75.60;;;;;;6215018;23;19974;-71
2023/04/12 15:24:18;;;;;;;;;;;17.10;75.40;;;;;;6213674;23;19908;-71
2023/04/12 15:26:46;;;;;;;;;;;17.10;75.50;;;;;;6213965;23;19915;-71
2023/04/12 15:29:16;;;;;;;;;;;17.10;75.60;;;;;;6213050;23;19944;-71
2023/04/12 15:31:43;;;;;;;;;;;17.10;75.80;;;;;;6214040;23;19992;-71
2023/04/12 15:34:10;;;;;;;;;;;17.00;75.90;;;;;;6213633;23;20239;-71
2023/04/12 15:36:37;;;;;;;;;;;17.10;76.10;;;;;;6212246;23;19962;-71
2023/04/12 15:39:03;;;;;;;;;;;17.00;76.00;;;;;;6214593;23;19908;-71
2023/04/12 15:41:36;;;;;;;;;;;17.00;75.80;;;;;;6214261;23;19904;-71
2023/04/12 15:44:04;;;;;;;;;;;17.00;76.00;;;;;;6214257;23;19907;-71
2023/04/12 15:46:30;;;;;;;;;;;17.00;75.80;;;;;;6214632;23;19908;-71
2023/04/12 15:48:57;;;;;;;;;;;17.00;76.00;;;;;;6214919;23;19908;-71
2023/04/12 15:51:25;;;;;;;;;;;17.00;76.00;;;;;;6214266;23;19975;-71
2023/04/12 15:53:52;;;;;;;;;;;17.00;76.30;;;;;;6213875;23;19908;-71
2023/04/12 15:56:23;;;;;;;;;;;17.10;76.00;;;;;;6212674;23;19944;-71
2023/04/12 15:58:50;;;;;;;;;;;17.10;76.00;;;;;;6214635;23;19943;-71
2023/04/12 17:48:20;;;;;;;;;;;16.30;79.40;;;;;;6274135;22;19929;-71
2023/04/12 17:50:47;;;;;;;;;;;16.30;79.70;;;;;;6275709;22;19986;-70
2023/04/12 17:53:13;;;;;;;;;;;16.30;79.70;;;;;;6275987;22;19910;-71
2023/04/12 17:55:40;;;;;;;;;;;16.20;79.90;;;;;;6248487;22;19904;-70
2023/04/12 17:58:07;;;;;;;;;;;16.20;79.60;;;;;;6248821;22;19915;-70
2023/04/12 18:00:34;;;;;;;;;;;16.20;79.50;;;;;;6275541;22;19903;-70
2023/04/12 18:03:01;;;;;;;;;;;16.20;80.10;;;;;;6276096;22;19903;-70
2023/04/12 18:05:27;;;;;;;;;;;16.20;79.70;;;;;;6276315;22;19903;-71
2023/04/12 18:07:55;;;;;;;;;;;16.10;80.10;;;;;;6275687;22;20311;-70
2023/04/12 18:10:25;;;;;;;;;;;16.10;80.40;;;;;;6274826;22;19904;-70
2023/04/12 18:12:52;;;;;;;;;;;16.10;80.00;;;;;;6275056;22;19904;-70
2023/04/12 18:15:18;;;;;;;;;;;16.10;80.30;;;;;;6275758;22;19970;-70
2023/04/12 18:17:45;;;;;;;;;;;16.00;80.40;;;;;;6275655;22;19939;-70
2023/04/12 18:20:12;;;;;;;;;;;16.00;80.80;;;;;;6276638;22;19911;-70
2023/04/12 18:22:39;;;;;;;;;;;15.90;80.40;;;;;;6276116;22;20246;-70
2023/04/12 18:25:06;;;;;;;;;;;15.90;80.80;;;;;;6276195;22;20334;-70
2023/04/12 18:27:33;;;;;;;;;;;15.80;81.10;;;;;;6276035;22;19911;-70
2023/04/12 18:30:02;;;;;;;;;;;15.80;80.80;;;;;;6275965;22;20242;-70
2023/04/12 18:32:29;;;;;;;;;;;15.80;81.00;;;;;;6275746;22;19910;-70
2023/04/12 18:34:55;;;;;;;;;;;15.70;80.70;;;;;;6276334;22;19903;-70
2023/04/12 18:37:22;;;;;;;;;;;15.70;80.90;;;;;;6275392;22;19911;-70
2023/04/12 18:39:49;;;;;;;;;;;15.80;80.80;;;;;;6275216;22;19911;-70
2023/04/12 18:42:15;;;;;;;;;;;15.70;81.30;;;;;;6275274;22;19908;-70
2023/04/12 18:44:43;;;;;;;;;;;15.70;81.30;;;;;;6275493;22;20360;-70
2023/04/12 18:47:10;;;;;;;;;;;15.70;81.80;;;;;;6275257;22;19974;-70
2023/04/12 18:49:37;;;;;;;;;;;15.70;81.90;;;;;;6275029;22;19938;-71
2023/04/12 18:52:04;;;;;;;;;;;15.70;81.70;;;;;;6275590;22;19925;-70
2023/04/12 18:54:31;;;;;;;;;;;15.70;81.70;;;;;;6275565;22;19903;-71
2023/04/12 18:57:00;;;;;;;;;;;15.70;81.50;;;;;;6275329;22;20310;-71
2023/04/12 18:59:27;;;;;;;;;;;15.70;81.60;;;;;;6272339;22;19931;-71
2023/04/12 19:01:53;;;;;;;;;;;15.60;81.00;;;;;;6273975;22;19987;-70
2023/04/12 19:04:20;;;;;;;;;;;15.60;81.10;;;;;;6275798;22;19907;-71
2023/04/12 19:06:47;;;;;;;;;;;15.60;81.10;;;;;;6275395;22;20003;-71
2023/04/12 19:09:14;;;;;;;;;;;15.60;81.10;;;;;;6274887;22;20332;-71
2023/04/12 19:11:41;;;;;;;;;;;15.60;80.90;;;;;;6274709;22;19903;-70
2023/04/12 19:14:07;;;;;;;;;;;15.60;80.80;;;;;;6274990;22;19914;-71
